Time,TemperatureF,DewpointF,PressureIn,WindDirection,WindDirectionDegrees,WindSpeedMPH,WindSpeedGustMPH,Humidity,HourlyPrecipIn,Conditions,Clouds,dailyrainin,SoftwareType,DateUTC
2013-03-03 00:04:00,15.1,3.7,30.20,NNE,24,0.0,0.0,60,0.00,,,0.00,VWS V14.01,2013-03-03 06:04:00,
2013-03-03 00:09:00,15.3,3.9,30.20,NNE,24,0.0,0.0,60,0.00,,,0.00,VWS V14.01,2013-03-03 06:09:00,
2013-03-03 00:15:00,15.4,4.1,30.17,NNE,24,0.0,0.0,60,0.00,,,0.00,VWS V14.01,2013-03-03 06:15:00,
2013-03-03 00:21:00,15.8,4.8,30.17,NNE,24,0.0,0.0,61,0.00,,,0.00,VWS V14.01,2013-03-03 06:21:00,
2013-03-03 00:27:00,16.0,4.9,30.17,NNE,24,0.0,0.0,61,0.00,,,0.00,VWS V14.01,2013-03-03 06:27:00,
2013-03-03 00:33:00,16.2,5.1,30.17,NNE,24,0.0,0.0,61,0.00,,,0.00,VWS V14.01,2013-03-03 06:33:00,
2013-03-03 00:38:00,16.3,5.3,30.17,NNE,24,0.0,0.0,61,0.00,,,0.00,VWS V14.01,2013-03-03 06:38:00,
2013-03-03 00:44:00,16.5,5.4,30.17,NNE,24,0.0,0.0,61,0.00,,,0.00,VWS V14.01,2013-03-03 06:44:00,
2013-03-03 00:49:00,16.3,5.3,30.17,NNE,24,0.0,0.0,61,0.00,,,0.00,VWS V14.01,2013-03-03 06:49:00,
2013-03-03 00:55:00,16.5,5.4,30.17,NNE,24,0.0,0.0,61,0.00,,,0.00,VWS V14.01,2013-03-03 06:55:00,
2013-03-03 01:00:00,16.5,5.4,30.17,NNE,24,0.0,0.0,61,0.00,,,0.00,VWS V14.01,2013-03-03 07:00:00,
2013-03-03 01:05:00,16.5,5.4,30.17,NNE,24,0.0,0.0,61,0.00,,,0.00,VWS V14.01,2013-03-03 07:05:00,
2013-03-03 01:11:00,16.7,6.0,30.17,NNE,24,0.0,0.0,62,0.00,,,0.00,VWS V14.01,2013-03-03 07:11:00,
2013-03-03 01:16:00,16.7,6.0,30.17,NNE,24,0.0,0.0,62,0.00,,,0.00,VWS V14.01,2013-03-03 07:16:00,
2013-03-03 01:21:00,16.9,6.1,30.17,NNE,24,0.0,0.0,62,0.00,,,0.00,VWS V14.01,2013-03-03 07:21:00,
2013-03-03 01:27:00,17.1,6.3,30.17,NNE,24,0.0,0.0,62,0.00,,,0.00,VWS V14.01,2013-03-03 07:27:00,
2013-03-03 01:33:00,17.2,6.5,30.17,NNE,24,0.0,0.0,62,0.00,,,0.00,VWS V14.01,2013-03-03 07:33:00,
2013-03-03 01:38:00,17.4,6.6,30.17,NNE,24,0.0,0.0,62,0.00,,,0.00,VWS V14.01,2013-03-03 07:38:00,
2013-03-03 01:44:00,17.4,6.6,30.17,NNE,24,0.0,0.0,62,0.00,,,0.00,VWS V14.01,2013-03-03 07:44:00,
2013-03-03 01:49:00,17.6,6.8,30.17,NNE,24,0.0,0.0,62,0.00,,,0.00,VWS V14.01,2013-03-03 07:49:00,
2013-03-03 01:55:00,17.6,6.8,30.17,NNE,24,0.0,0.0,62,0.00,,,0.00,VWS V14.01,2013-03-03 07:55:00,
2013-03-03 02:01:00,17.8,7.0,30.17,NNE,24,0.0,0.0,62,0.00,,,0.00,VWS V14.01,2013-03-03 08:01:00,
2013-03-03 02:07:00,17.8,7.0,30.17,NNE,24,0.0,0.0,62,0.00,,,0.00,VWS V14.01,2013-03-03 08:07:00,
2013-03-03 02:12:00,18.1,7.3,30.17,NNE,24,0.0,0.0,62,0.00,,,0.00,VWS V14.01,2013-03-03 08:12:00,
2013-03-03 02:18:00,18.1,7.3,30.17,NNE,24,0.0,0.0,62,0.00,,,0.00,VWS V14.01,2013-03-03 08:18:00,
2013-03-03 02:24:00,18.1,7.3,30.17,NNE,24,0.0,0.0,62,0.00,,,0.00,VWS V14.01,2013-03-03 08:24:00,
2013-03-03 02:29:00,18.3,7.5,30.17,NNE,24,0.0,0.0,62,0.00,,,0.00,VWS V14.01,2013-03-03 08:29:00,
2013-03-03 02:34:00,18.5,7.7,30.17,NNE,24,0.0,0.0,62,0.00,,,0.00,VWS V14.01,2013-03-03 08:34:00,
2013-03-03 02:39:00,18.5,7.7,30.17,NNE,24,0.0,0.0,62,0.00,,,0.00,VWS V14.01,2013-03-03 08:39:00,
2013-03-03 02:45:00,18.7,8.2,30.14,NNE,24,0.0,0.0,63,0.00,,,0.00,VWS V14.01,2013-03-03 08:45:00,
2013-03-03 02:50:00,18.5,7.7,30.14,NNE,24,0.0,0.0,62,0.00,,,0.00,VWS V14.01,2013-03-03 08:50:00,
2013-03-03 02:55:00,18.3,7.5,30.14,NNE,24,0.0,0.0,62,0.00,,,0.00,VWS V14.01,2013-03-03 08:55:00,
2013-03-03 03:00:00,18.1,7.3,30.14,NNE,24,0.0,0.0,62,0.00,,,0.00,VWS V14.01,2013-03-03 09:00:00,
2013-03-03 03:05:00,18.0,7.2,30.14,NNE,24,0.0,0.0,62,0.00,,,0.00,VWS V14.01,2013-03-03 09:05:00,
2013-03-03 03:11:00,17.8,7.0,30.14,NNE,24,0.0,0.0,62,0.00,,,0.00,VWS V14.01,2013-03-03 09:11:00,
2013-03-03 03:17:00,17.8,7.0,30.14,NNE,24,0.0,0.0,62,0.00,,,0.00,VWS V14.01,2013-03-03 09:17:00,
2013-03-03 03:23:00,18.0,7.2,30.14,NNE,24,0.0,0.0,62,0.00,,,0.00,VWS V14.01,2013-03-03 09:23:00,
2013-03-03 03:28:00,18.1,7.3,30.14,NNE,24,0.0,0.0,62,0.00,,,0.00,VWS V14.01,2013-03-03 09:28:00,
2013-03-03 03:34:00,18.1,7.3,30.14,NNE,24,0.0,0.0,62,0.00,,,0.00,VWS V14.01,2013-03-03 09:34:00,
2013-03-03 03:40:00,18.3,7.5,30.11,NNE,24,0.0,0.0,62,0.00,,,0.00,VWS V14.01,2013-03-03 09:40:00,
2013-03-03 03:45:00,18.3,7.8,30.11,NNE,24,0.0,0.0,63,0.00,,,0.00,VWS V14.01,2013-03-03 09:45:00,
2013-03-03 03:51:00,18.5,8.0,30.11,NNE,24,0.0,0.0,63,0.00,,,0.00,VWS V14.01,2013-03-03 09:51:00,
2013-03-03 03:56:00,18.7,8.2,30.11,NNE,24,0.0,0.0,63,0.00,,,0.00,VWS V14.01,2013-03-03 09:56:00,
2013-03-03 04:02:00,18.7,8.2,30.11,NNE,24,0.0,0.0,63,0.00,,,0.00,VWS V14.01,2013-03-03 10:02:00,
2013-03-03 04:07:00,18.9,8.4,30.11,NNE,24,0.0,0.0,63,0.00,,,0.00,VWS V14.01,2013-03-03 10:07:00,
2013-03-03 04:13:00,19.0,8.5,30.11,NNE,24,0.0,0.0,63,0.00,,,0.00,VWS V14.01,2013-03-03 10:13:00,
2013-03-03 04:18:00,19.0,8.5,30.11,NNE,24,0.0,0.0,63,0.00,,,0.00,VWS V14.01,2013-03-03 10:18:00,
2013-03-03 04:23:00,19.2,8.7,30.11,NNE,24,0.0,0.0,63,0.00,,,0.00,VWS V14.01,2013-03-03 10:23:00,
2013-03-03 04:28:00,19.2,8.7,30.11,NNE,24,0.0,0.0,63,0.00,,,0.00,VWS V14.01,2013-03-03 10:28:00,
2013-03-03 04:33:00,19.2,8.7,30.11,NNE,24,0.0,0.0,63,0.00,,,0.00,VWS V14.01,2013-03-03 10:33:00,
2013-03-03 04:39:00,19.2,8.7,30.11,NNE,24,0.0,0.0,63,0.00,,,0.00,VWS V14.01,2013-03-03 10:39:00,
2013-03-03 04:45:00,19.2,8.7,30.11,NNE,24,0.0,0.0,63,0.00,,,0.00,VWS V14.01,2013-03-03 10:45:00,
2013-03-03 04:50:00,19.4,8.9,30.11,NNE,24,0.0,0.0,63,0.00,,,0.00,VWS V14.01,2013-03-03 10:50:00,
2013-03-03 04:56:00,19.4,8.9,30.11,NNE,24,0.0,0.0,63,0.00,,,0.00,VWS V14.01,2013-03-03 10:56:00,
2013-03-03 05:01:00,19.4,8.9,30.11,NNE,24,0.0,0.0,63,0.00,,,0.00,VWS V14.01,2013-03-03 11:01:00,
2013-03-03 05:06:00,19.6,9.1,30.11,NNE,24,0.0,0.0,63,0.00,,,0.00,VWS V14.01,2013-03-03 11:06:00,
2013-03-03 05:11:00,19.6,9.1,30.11,NNE,24,0.0,0.0,63,0.00,,,0.00,VWS V14.01,2013-03-03 11:11:00,
2013-03-03 05:16:00,19.8,9.2,30.11,NNE,24,0.0,0.0,63,0.00,,,0.00,VWS V14.01,2013-03-03 11:16:00,
2013-03-03 05:22:00,19.8,9.2,30.11,NNE,24,0.0,0.0,63,0.00,,,0.00,VWS V14.01,2013-03-03 11:22:00,
2013-03-03 05:27:00,19.8,9.2,30.11,NNE,24,0.0,0.0,63,0.00,,,0.00,VWS V14.01,2013-03-03 11:27:00,
2013-03-03 05:32:00,19.8,9.2,30.11,NNE,24,0.0,0.0,63,0.00,,,0.00,VWS V14.01,2013-03-03 11:32:00,
2013-03-03 05:37:00,19.9,9.4,30.11,NNE,24,0.0,0.0,63,0.00,,,0.00,VWS V14.01,2013-03-03 11:37:00,
2013-03-03 05:43:00,19.8,9.2,30.11,NNE,24,0.0,0.0,63,0.00,,,0.00,VWS V14.01,2013-03-03 11:43:00,
2013-03-03 05:48:00,19.8,9.2,30.11,NNE,24,0.0,0.0,63,0.00,,,0.00,VWS V14.01,2013-03-03 11:48:00,
2013-03-03 05:53:00,19.8,9.2,30.11,NNE,24,0.0,0.0,63,0.00,,,0.00,VWS V14.01,2013-03-03 11:53:00,
2013-03-03 05:58:00,19.8,9.2,30.11,NNE,24,0.0,0.0,63,0.00,,,0.00,VWS V14.01,2013-03-03 11:58:00,
2013-03-03 06:03:00,19.8,9.2,30.11,NNE,24,0.0,0.0,63,0.00,,,0.00,VWS V14.01,2013-03-03 12:03:00,
2013-03-03 06:09:00,19.9,9.4,30.11,NNE,24,0.0,0.0,63,0.00,,,0.00,VWS V14.01,2013-03-03 12:09:00,
2013-03-03 06:15:00,19.9,9.4,30.11,NNE,24,0.0,0.0,63,0.00,,,0.00,VWS V14.01,2013-03-03 12:15:00,
2013-03-03 06:21:00,20.1,9.6,30.11,NNE,24,0.0,0.0,63,0.00,,,0.00,VWS V14.01,2013-03-03 12:21:00,
2013-03-03 06:27:00,20.1,9.6,30.11,NNE,24,0.0,0.0,63,0.00,,,0.00,VWS V14.01,2013-03-03 12:27:00,
2013-03-03 06:32:00,20.1,9.6,30.11,NNE,24,0.0,0.0,63,0.00,,,0.00,VWS V14.01,2013-03-03 12:32:00,
2013-03-03 06:38:00,20.3,9.7,30.11,NNE,24,0.0,0.0,63,0.00,,,0.00,VWS V14.01,2013-03-03 12:38:00,
2013-03-03 06:43:00,20.3,9.7,30.11,NNE,24,0.0,0.0,63,0.00,,,0.00,VWS V14.01,2013-03-03 12:43:00,
2013-03-03 06:49:00,20.3,9.7,30.11,NNE,24,0.0,0.0,63,0.00,,,0.00,VWS V14.01,2013-03-03 12:49:00,
2013-03-03 06:54:00,20.5,9.6,30.11,NNE,24,0.0,0.0,62,0.00,,,0.00,VWS V14.01,2013-03-03 12:54:00,
2013-03-03 07:00:00,20.7,9.7,30.11,NNE,24,0.0,0.0,62,0.00,,,0.00,VWS V14.01,2013-03-03 13:00:00,
2013-03-03 07:06:00,20.8,9.9,30.11,NNE,24,0.0,0.0,62,0.00,,,0.00,VWS V14.01,2013-03-03 13:06:00,
2013-03-03 07:12:00,21.2,10.2,30.11,NNE,24,0.0,0.0,62,0.00,,,0.00,VWS V14.01,2013-03-03 13:12:00,
2013-03-03 07:18:00,21.7,10.4,30.11,NNE,24,0.0,0.0,61,0.00,,,0.00,VWS V14.01,2013-03-03 13:18:00,
2013-03-03 07:24:00,21.9,10.2,30.11,NNE,24,0.0,0.0,60,0.00,,,0.00,VWS V14.01,2013-03-03 13:24:00,
2013-03-03 07:30:00,21.9,9.8,30.11,NNE,24,0.0,0.0,59,0.00,,,0.00,VWS V14.01,2013-03-03 13:30:00,
2013-03-03 07:35:00,22.1,10.0,30.11,NNE,24,0.0,0.0,59,0.00,,,0.00,VWS V14.01,2013-03-03 13:35:00,
2013-03-03 07:40:00,22.5,10.3,30.11,NNE,24,0.0,0.0,59,0.00,,,0.00,VWS V14.01,2013-03-03 13:40:00,
2013-03-03 07:46:00,22.8,10.6,30.11,NNE,24,0.0,0.0,59,0.00,,,0.00,VWS V14.01,2013-03-03 13:46:00,
2013-03-03 07:51:00,23.7,11.1,30.11,NNE,24,0.0,0.0,58,0.00,,,0.00,VWS V14.01,2013-03-03 13:51:00,
2013-03-03 07:57:00,24.6,11.2,30.11,NNE,24,0.0,0.0,56,0.00,,,0.00,VWS V14.01,2013-03-03 13:57:00,
2013-03-03 08:02:00,25.2,10.4,30.11,NNE,24,0.0,0.0,53,0.00,,,0.00,VWS V14.01,2013-03-03 14:02:00,
2013-03-03 08:08:00,26.2,11.4,30.11,NNE,24,0.0,0.0,53,0.00,,,0.00,VWS V14.01,2013-03-03 14:08:00,
2013-03-03 08:13:00,26.6,10.9,30.11,NNE,24,0.0,0.0,51,0.00,,,0.00,VWS V14.01,2013-03-03 14:13:00,
2013-03-03 08:18:00,26.8,10.2,30.11,NNE,24,0.0,0.0,49,0.00,,,0.00,VWS V14.01,2013-03-03 14:18:00,
2013-03-03 08:23:00,26.8,9.3,30.11,NNE,24,0.0,0.0,47,0.00,,,0.00,VWS V14.01,2013-03-03 14:23:00,
2013-03-03 08:28:00,27.0,8.9,30.11,NNE,24,0.0,0.0,46,0.00,,,0.00,VWS V14.01,2013-03-03 14:28:00,
2013-03-03 08:34:00,27.0,8.5,30.11,NNE,24,0.0,0.0,45,0.00,,,0.00,VWS V14.01,2013-03-03 14:34:00,
2013-03-03 08:40:00,27.3,8.8,30.11,NNE,24,0.0,0.0,45,0.00,,,0.00,VWS V14.01,2013-03-03 14:40:00,
2013-03-03 08:45:00,27.7,9.1,30.11,NNE,24,0.0,0.0,45,0.00,,,0.00,VWS V14.01,2013-03-03 14:45:00,
2013-03-03 08:51:00,28.4,9.3,30.11,NNE,24,0.0,0.0,44,0.00,,,0.00,VWS V14.01,2013-03-03 14:51:00,
2013-03-03 08:57:00,28.6,8.9,30.11,NNE,24,0.0,0.0,43,0.00,,,0.00,VWS V14.01,2013-03-03 14:57:00,
2013-03-03 09:03:00,29.5,9.8,30.11,NNE,24,0.0,0.0,43,0.00,,,0.00,VWS V14.01,2013-03-03 15:03:00,
2013-03-03 09:08:00,30.4,10.1,30.11,NNE,24,0.0,0.0,42,0.00,,,0.00,VWS V14.01,2013-03-03 15:08:00,
2013-03-03 09:13:00,31.5,10.5,30.11,NNE,24,0.0,0.0,41,0.00,,,0.00,VWS V14.01,2013-03-03 15:13:00,
2013-03-03 09:18:00,33.1,12.0,30.11,NNE,24,0.0,0.0,41,0.00,,,0.00,VWS V14.01,2013-03-03 15:18:00,
2013-03-03 09:24:00,34.5,12.7,30.11,NNE,24,0.0,0.0,40,0.00,,,0.00,VWS V14.01,2013-03-03 15:24:00,
2013-03-03 09:29:00,35.2,13.4,30.11,NNE,24,0.0,0.0,40,0.00,,,0.00,VWS V14.01,2013-03-03 15:29:00,
2013-03-03 09:34:00,35.2,12.8,30.11,NNE,24,0.0,0.0,39,0.00,,,0.00,VWS V14.01,2013-03-03 15:34:00,
2013-03-03 09:39:00,35.1,12.6,30.11,NNE,24,0.0,0.0,39,0.00,,,0.00,VWS V14.01,2013-03-03 15:39:00,
2013-03-03 09:45:00,36.3,13.2,30.08,NNE,24,0.0,0.0,38,0.00,,,0.00,VWS V14.01,2013-03-03 15:45:00,
2013-03-03 09:50:00,37.4,13.5,30.08,NNE,24,0.0,0.0,37,0.00,,,0.00,VWS V14.01,2013-03-03 15:50:00,
2013-03-03 09:56:00,38.3,13.7,30.08,NNE,24,0.0,0.0,36,0.00,,,0.00,VWS V14.01,2013-03-03 15:56:00,
2013-03-03 10:01:00,38.8,13.5,30.08,NNE,24,0.0,0.0,35,0.00,,,0.00,VWS V14.01,2013-03-03 16:01:00,
2013-03-03 10:07:00,41.0,13.4,30.08,NNE,24,0.0,0.0,32,0.00,,,0.00,VWS V14.01,2013-03-03 16:07:00,
2013-03-03 10:12:00,40.1,12.6,30.08,NNE,24,0.0,0.0,32,0.00,,,0.00,VWS V14.01,2013-03-03 16:12:00,
2013-03-03 10:17:00,39.0,12.4,30.08,NNE,24,0.0,0.0,33,0.00,,,0.00,VWS V14.01,2013-03-03 16:17:00,
2013-03-03 10:22:00,40.1,12.6,30.08,NNE,24,0.0,0.0,32,0.00,,,0.00,VWS V14.01,2013-03-03 16:22:00,
2013-03-03 10:27:00,40.8,13.3,30.08,NNE,24,0.0,0.0,32,0.00,,,0.00,VWS V14.01,2013-03-03 16:27:00,
2013-03-03 10:33:00,42.4,14.0,30.08,NNE,24,0.0,0.0,31,0.00,,,0.00,VWS V14.01,2013-03-03 16:33:00,
2013-03-03 10:38:00,42.6,14.1,30.08,NNE,24,0.0,0.0,31,0.00,,,0.00,VWS V14.01,2013-03-03 16:38:00,
2013-03-03 10:44:00,43.3,14.0,30.08,NNE,24,0.0,0.0,30,0.00,,,0.00,VWS V14.01,2013-03-03 16:44:00,
2013-03-03 10:50:00,42.8,13.5,30.08,NNE,24,0.0,0.0,30,0.00,,,0.00,VWS V14.01,2013-03-03 16:50:00,
2013-03-03 10:56:00,43.5,14.2,30.08,NNE,24,0.0,0.0,30,0.00,,,0.00,VWS V14.01,2013-03-03 16:56:00,
2013-03-03 11:02:00,44.1,14.6,30.08,NNE,24,0.0,0.0,30,0.00,,,0.00,VWS V14.01,2013-03-03 17:02:00,
2013-03-03 11:07:00,43.9,13.7,30.08,NNE,24,0.0,0.0,29,0.00,,,0.00,VWS V14.01,2013-03-03 17:07:00,
2013-03-03 11:13:00,43.3,13.2,30.08,NNE,24,0.0,0.0,29,0.00,,,0.00,VWS V14.01,2013-03-03 17:13:00,
2013-03-03 11:19:00,42.6,13.4,30.08,NNE,24,0.0,0.0,30,0.00,,,0.00,VWS V14.01,2013-03-03 17:19:00,
2013-03-03 11:25:00,42.8,13.5,30.08,NNE,24,0.0,0.0,30,0.00,,,0.00,VWS V14.01,2013-03-03 17:25:00,
2013-03-03 11:31:00,43.0,12.9,30.08,NNE,24,0.0,0.0,29,0.00,,,0.00,VWS V14.01,2013-03-03 17:31:00,
2013-03-03 11:36:00,44.1,13.9,30.08,NNE,24,0.0,0.0,29,0.00,,,0.00,VWS V14.01,2013-03-03 17:36:00,
2013-03-03 11:42:00,45.0,14.6,30.08,NNE,24,0.0,0.0,29,0.00,,,0.00,VWS V14.01,2013-03-03 17:42:00,
2013-03-03 11:47:00,45.1,14.8,30.08,NNE,24,0.0,0.0,29,0.00,,,0.00,VWS V14.01,2013-03-03 17:47:00,
2013-03-03 11:52:00,44.4,14.2,30.08,NNE,24,0.0,0.0,29,0.00,,,0.00,VWS V14.01,2013-03-03 17:52:00,
2013-03-03 11:57:00,43.9,13.7,30.08,NNE,24,0.0,0.0,29,0.00,,,0.00,VWS V14.01,2013-03-03 17:57:00,
2013-03-03 12:03:00,43.7,13.5,30.08,NNE,24,0.0,0.0,29,0.00,,,0.00,VWS V14.01,2013-03-03 18:03:00,
2013-03-03 12:09:00,43.2,13.1,30.08,NNE,24,0.0,0.0,29,0.00,,,0.00,VWS V14.01,2013-03-03 18:09:00,
2013-03-03 12:14:00,42.4,13.2,30.05,NNE,24,0.0,0.0,30,0.00,,,0.00,VWS V14.01,2013-03-03 18:14:00,
2013-03-03 12:19:00,43.0,12.9,30.05,NNE,24,0.0,0.0,29,0.00,,,0.00,VWS V14.01,2013-03-03 18:19:00,
2013-03-03 12:25:00,43.2,13.1,30.05,NNE,24,0.0,0.0,29,0.00,,,0.00,VWS V14.01,2013-03-03 18:25:00,
2013-03-03 12:30:00,43.0,12.9,30.05,NNE,24,0.0,0.0,29,0.00,,,0.00,VWS V14.01,2013-03-03 18:30:00,
2013-03-03 12:36:00,42.4,12.4,30.05,NNE,24,0.0,0.0,29,0.00,,,0.00,VWS V14.01,2013-03-03 18:36:00,
2013-03-03 12:42:00,43.2,13.1,30.05,NNE,24,0.0,0.0,29,0.00,,,0.00,VWS V14.01,2013-03-03 18:42:00,
2013-03-03 12:47:00,44.1,13.9,30.05,NNE,24,0.0,0.0,29,0.00,,,0.00,VWS V14.01,2013-03-03 18:47:00,
2013-03-03 12:53:00,43.7,13.5,30.05,NNE,24,0.0,0.0,29,0.00,,,0.00,VWS V14.01,2013-03-03 18:53:00,
2013-03-03 12:58:00,42.4,13.2,30.05,NNE,24,0.0,0.0,30,0.00,,,0.00,VWS V14.01,2013-03-03 18:58:00,
2013-03-03 13:03:00,42.3,12.3,30.05,NNE,24,0.0,0.0,29,0.00,,,0.00,VWS V14.01,2013-03-03 19:03:00,
2013-03-03 13:08:00,42.3,12.3,30.05,NNE,24,0.0,0.0,29,0.00,,,0.00,VWS V14.01,2013-03-03 19:08:00,
2013-03-03 13:14:00,41.2,12.1,30.02,NNE,24,0.0,0.0,30,0.00,,,0.00,VWS V14.01,2013-03-03 19:14:00,
2013-03-03 13:19:00,41.7,12.6,30.02,NNE,24,0.0,0.0,30,0.00,,,0.00,VWS V14.01,2013-03-03 19:19:00,
2013-03-03 13:25:00,41.7,12.6,30.02,NNE,24,0.0,0.0,30,0.00,,,0.00,VWS V14.01,2013-03-03 19:25:00,
2013-03-03 13:30:00,42.1,12.9,30.02,NNE,24,0.0,0.0,30,0.00,,,0.00,VWS V14.01,2013-03-03 19:30:00,
2013-03-03 13:35:00,42.1,12.9,30.02,NNE,24,0.0,0.0,30,0.00,,,0.00,VWS V14.01,2013-03-03 19:35:00,
2013-03-03 13:41:00,41.5,11.7,30.02,NNE,24,0.0,0.0,29,0.00,,,0.00,VWS V14.01,2013-03-03 19:41:00,
2013-03-03 13:46:00,42.1,12.9,30.02,NNE,24,0.0,0.0,30,0.00,,,0.00,VWS V14.01,2013-03-03 19:46:00,
2013-03-03 13:52:00,43.0,12.9,30.02,NNE,24,0.0,0.0,29,0.00,,,0.00,VWS V14.01,2013-03-03 19:52:00,
2013-03-03 13:57:00,43.7,13.5,30.02,NNE,24,0.0,0.0,29,0.00,,,0.00,VWS V14.01,2013-03-03 19:57:00,
2013-03-03 14:03:00,43.7,13.5,30.02,NNE,24,0.0,0.0,29,0.00,,,0.00,VWS V14.01,2013-03-03 20:03:00,
2013-03-03 14:09:00,43.2,13.1,30.02,NNE,24,0.0,0.0,29,0.00,,,0.00,VWS V14.01,2013-03-03 20:09:00,
2013-03-03 14:14:00,41.9,12.0,30.02,NNE,24,0.0,0.0,29,0.00,,,0.00,VWS V14.01,2013-03-03 20:14:00,
2013-03-03 14:19:00,41.0,11.2,30.02,NNE,24,0.0,0.0,29,0.00,,,0.00,VWS V14.01,2013-03-03 20:19:00,
2013-03-03 14:25:00,40.5,11.5,29.99,NNE,24,0.0,0.0,30,0.00,,,0.00,VWS V14.01,2013-03-03 20:25:00,
2013-03-03 14:31:00,39.9,11.0,29.99,NNE,24,0.0,0.0,30,0.00,,,0.00,VWS V14.01,2013-03-03 20:31:00,
2013-03-03 14:36:00,39.7,10.9,29.99,NNE,24,0.0,0.0,30,0.00,,,0.00,VWS V14.01,2013-03-03 20:36:00,
2013-03-03 14:42:00,39.9,11.0,29.99,NNE,24,0.0,0.0,30,0.00,,,0.00,VWS V14.01,2013-03-03 20:42:00,
2013-03-03 14:48:00,40.3,12.1,29.99,NNE,24,0.0,0.0,31,0.00,,,0.00,VWS V14.01,2013-03-03 20:48:00,
2013-03-03 14:54:00,40.6,12.4,29.99,NNE,24,0.0,0.0,31,0.00,,,0.00,VWS V14.01,2013-03-03 20:54:00,
2013-03-03 15:00:00,40.8,12.5,29.99,NNE,24,0.0,0.0,31,0.00,,,0.00,VWS V14.01,2013-03-03 21:00:00,
2013-03-03 15:05:00,40.8,12.5,29.99,NNE,24,0.0,0.0,31,0.00,,,0.00,VWS V14.01,2013-03-03 21:05:00,
2013-03-03 15:11:00,40.1,11.9,29.99,NNE,24,0.0,0.0,31,0.00,,,0.00,VWS V14.01,2013-03-03 21:11:00,
2013-03-03 15:16:00,40.3,12.8,29.99,NNE,24,0.0,0.0,32,0.00,,,0.00,VWS V14.01,2013-03-03 21:16:00,
2013-03-03 15:21:00,39.4,12.0,29.99,NNE,24,0.0,0.0,32,0.00,,,0.00,VWS V14.01,2013-03-03 21:21:00,
2013-03-03 15:26:00,38.7,11.4,29.99,NNE,24,0.0,0.0,32,0.00,,,0.00,VWS V14.01,2013-03-03 21:26:00,
2013-03-03 15:31:00,38.1,10.9,29.99,NNE,24,0.0,0.0,32,0.00,,,0.00,VWS V14.01,2013-03-03 21:31:00,
2013-03-03 15:37:00,37.8,10.6,29.99,NNE,24,0.0,0.0,32,0.00,,,0.00,VWS V14.01,2013-03-03 21:37:00,
2013-03-03 15:42:00,37.4,10.2,29.99,NNE,24,0.0,0.0,32,0.00,,,0.00,VWS V14.01,2013-03-03 21:42:00,
2013-03-03 15:48:00,36.9,11.1,29.99,NNE,24,0.0,0.0,34,0.00,,,0.00,VWS V14.01,2013-03-03 21:48:00,
2013-03-03 15:54:00,36.9,10.5,29.99,NNE,24,0.0,0.0,33,0.00,,,0.00,VWS V14.01,2013-03-03 21:54:00,
2013-03-03 15:59:00,36.9,10.5,29.99,NNE,24,0.0,0.0,33,0.00,,,0.00,VWS V14.01,2013-03-03 21:59:00,
2013-03-03 16:04:00,36.9,11.1,29.99,NNE,24,0.0,0.0,34,0.00,,,0.00,VWS V14.01,2013-03-03 22:04:00,
2013-03-03 16:09:00,37.0,12.6,29.96,NNE,24,0.0,0.0,36,0.00,,,0.00,VWS V14.01,2013-03-03 22:09:00,
2013-03-03 16:14:00,37.0,12.6,29.96,NNE,24,0.0,0.0,36,0.00,,,0.00,VWS V14.01,2013-03-03 22:14:00,
2013-03-03 16:20:00,36.7,12.9,29.96,NNE,24,0.0,0.0,37,0.00,,,0.00,VWS V14.01,2013-03-03 22:20:00,
2013-03-03 16:25:00,36.3,12.6,29.96,NNE,24,0.0,0.0,37,0.00,,,0.00,VWS V14.01,2013-03-03 22:25:00,
2013-03-03 16:31:00,36.0,12.8,29.96,NNE,24,0.0,0.0,38,0.00,,,0.00,VWS V14.01,2013-03-03 22:31:00,
2013-03-03 16:37:00,35.8,13.3,29.96,NNE,24,0.0,0.0,39,0.00,,,0.00,VWS V14.01,2013-03-03 22:37:00,
2013-03-03 16:42:00,35.4,13.5,29.99,NNE,24,0.0,0.0,40,0.00,,,0.00,VWS V14.01,2013-03-03 22:42:00,
2013-03-03 16:48:00,35.2,13.4,29.99,NNE,24,0.0,0.0,40,0.00,,,0.00,VWS V14.01,2013-03-03 22:48:00,
2013-03-03 16:54:00,35.1,13.2,29.99,NNE,24,0.0,0.0,40,0.00,,,0.00,VWS V14.01,2013-03-03 22:54:00,
2013-03-03 17:00:00,34.9,13.0,29.99,NNE,24,0.0,0.0,40,0.00,,,0.00,VWS V14.01,2013-03-03 23:00:00,
2013-03-03 17:05:00,34.2,12.4,29.99,NNE,24,0.0,0.0,40,0.00,,,0.00,VWS V14.01,2013-03-03 23:05:00,
2013-03-03 17:10:00,33.8,12.1,29.96,NNE,24,0.0,0.0,40,0.00,,,0.00,VWS V14.01,2013-03-03 23:10:00,
2013-03-03 17:15:00,33.6,12.4,29.96,NNE,24,0.0,0.0,41,0.00,,,0.00,VWS V14.01,2013-03-03 23:15:00,
2013-03-03 17:20:00,33.3,12.1,29.96,NNE,24,0.0,0.0,41,0.00,,,0.00,VWS V14.01,2013-03-03 23:20:00,
2013-03-03 17:25:00,33.1,12.0,29.96,NNE,24,0.0,0.0,41,0.00,,,0.00,VWS V14.01,2013-03-03 23:25:00,
2013-03-03 17:30:00,32.9,12.3,29.96,NNE,24,0.0,0.0,42,0.00,,,0.00,VWS V14.01,2013-03-03 23:30:00,
2013-03-03 17:36:00,32.5,11.5,29.96,NNE,24,0.0,0.0,41,0.00,,,0.00,VWS V14.01,2013-03-03 23:36:00,
2013-03-03 17:41:00,32.4,11.3,29.96,NNE,24,0.0,0.0,41,0.00,,,0.00,VWS V14.01,2013-03-03 23:41:00,
2013-03-03 17:47:00,32.2,11.1,29.96,NNE,24,0.0,0.0,41,0.00,,,0.00,VWS V14.01,2013-03-03 23:47:00,
2013-03-03 17:53:00,32.2,11.7,29.96,NNE,24,0.0,0.0,42,0.00,,,0.00,VWS V14.01,2013-03-03 23:53:00,
2013-03-03 17:58:00,32.0,11.0,29.96,NNE,24,0.0,0.0,41,0.00,,,0.00,VWS V14.01,2013-03-03 23:58:00,
2013-03-03 18:03:00,31.8,10.8,29.96,NNE,24,0.0,0.0,41,0.00,,,0.00,VWS V14.01,2013-03-04 00:03:00,
2013-03-03 18:09:00,31.6,10.6,29.96,NNE,24,0.0,0.0,41,0.00,,,0.00,VWS V14.01,2013-03-04 00:09:00,
2013-03-03 18:14:00,31.6,10.6,29.96,NNE,24,0.0,0.0,41,0.00,,,0.00,VWS V14.01,2013-03-04 00:14:00,
2013-03-03 18:20:00,31.6,10.1,29.96,NNE,24,0.0,0.0,40,0.00,,,0.00,VWS V14.01,2013-03-04 00:20:00,
2013-03-03 18:26:00,31.5,9.9,29.96,NNE,24,0.0,0.0,40,0.00,,,0.00,VWS V14.01,2013-03-04 00:26:00,
2013-03-03 18:31:00,31.5,10.5,29.96,NNE,24,0.0,0.0,41,0.00,,,0.00,VWS V14.01,2013-03-04 00:31:00,
2013-03-03 18:37:00,31.3,10.3,29.96,NNE,24,0.0,0.0,41,0.00,,,0.00,VWS V14.01,2013-03-04 00:37:00,
2013-03-03 18:42:00,31.1,10.2,29.96,NNE,24,0.0,0.0,41,0.00,,,0.00,VWS V14.01,2013-03-04 00:42:00,
2013-03-03 18:48:00,31.1,10.7,29.96,NNE,24,0.0,0.0,42,0.00,,,0.00,VWS V14.01,2013-03-04 00:48:00,
2013-03-03 18:53:00,31.1,10.7,29.96,NNE,24,0.0,0.0,42,0.00,,,0.00,VWS V14.01,2013-03-04 00:53:00,
2013-03-03 18:59:00,31.1,11.2,29.96,NNE,24,0.0,0.0,43,0.00,,,0.00,VWS V14.01,2013-03-04 00:59:00,
2013-03-03 19:05:00,31.1,12.2,29.96,NNE,24,0.0,0.0,45,0.00,,,0.00,VWS V14.01,2013-03-04 01:05:00,
2013-03-03 19:10:00,31.1,12.8,29.96,NNE,24,0.0,0.0,46,0.00,,,0.00,VWS V14.01,2013-03-04 01:10:00,
2013-03-03 19:16:00,30.9,13.1,29.96,NNE,24,0.0,0.0,47,0.00,,,0.00,VWS V14.01,2013-03-04 01:16:00,
2013-03-03 19:21:00,30.9,14.0,29.96,NNE,24,0.0,0.0,49,0.00,,,0.00,VWS V14.01,2013-03-04 01:21:00,
2013-03-03 19:26:00,30.7,14.3,29.96,NNE,24,0.0,0.0,50,0.00,,,0.00,VWS V14.01,2013-03-04 01:26:00,
2013-03-03 19:32:00,30.6,14.1,29.96,NNE,24,0.0,0.0,50,0.00,,,0.00,VWS V14.01,2013-03-04 01:32:00,
2013-03-03 19:38:00,30.6,14.1,29.96,NNE,24,0.0,0.0,50,0.00,,,0.00,VWS V14.01,2013-03-04 01:38:00,
2013-03-03 19:43:00,30.4,14.0,29.96,NNE,24,0.0,0.0,50,0.00,,,0.00,VWS V14.01,2013-03-04 01:43:00,
2013-03-03 19:49:00,30.4,14.4,29.96,NNE,24,0.0,0.0,51,0.00,,,0.00,VWS V14.01,2013-03-04 01:49:00,
2013-03-03 19:54:00,30.4,14.4,29.96,NNE,24,0.0,0.0,51,0.00,,,0.00,VWS V14.01,2013-03-04 01:54:00,
2013-03-03 19:59:00,30.4,14.4,29.96,NNE,24,0.0,0.0,51,0.00,,,0.00,VWS V14.01,2013-03-04 01:59:00,
2013-03-03 20:04:00,30.4,14.4,29.96,NNE,24,0.0,0.0,51,0.00,,,0.00,VWS V14.01,2013-03-04 02:04:00,
2013-03-03 20:09:00,30.2,14.7,29.96,NNE,24,0.0,0.0,52,0.00,,,0.00,VWS V14.01,2013-03-04 02:09:00,
2013-03-03 20:15:00,30.2,14.7,29.96,NNE,24,0.0,0.0,52,0.00,,,0.00,VWS V14.01,2013-03-04 02:15:00,
2013-03-03 20:20:00,30.2,14.7,29.96,NNE,24,0.0,0.0,52,0.00,,,0.00,VWS V14.01,2013-03-04 02:20:00,
2013-03-03 20:26:00,30.2,14.7,29.96,NNE,24,0.0,0.0,52,0.00,,,0.00,VWS V14.01,2013-03-04 02:26:00,
2013-03-03 20:31:00,30.4,14.9,29.96,NNE,24,0.0,0.0,52,0.00,,,0.00,VWS V14.01,2013-03-04 02:31:00,
2013-03-03 20:37:00,30.4,14.4,29.96,NNE,24,0.0,0.0,51,0.00,,,0.00,VWS V14.01,2013-03-04 02:37:00,
2013-03-03 20:43:00,30.4,14.4,29.96,NNE,24,0.0,0.0,51,0.00,,,0.00,VWS V14.01,2013-03-04 02:43:00,
2013-03-03 20:48:00,30.4,14.4,29.96,NNE,24,0.0,0.0,51,0.00,,,0.00,VWS V14.01,2013-03-04 02:48:00,
2013-03-03 20:54:00,30.4,14.4,29.96,NNE,24,0.0,0.0,51,0.00,,,0.00,VWS V14.01,2013-03-04 02:54:00,
2013-03-03 20:59:00,30.4,14.0,29.96,NNE,24,0.0,0.0,50,0.00,,,0.00,VWS V14.01,2013-03-04 02:59:00,
2013-03-03 21:05:00,30.4,14.0,29.96,NNE,24,0.0,0.0,50,0.00,,,0.00,VWS V14.01,2013-03-04 03:05:00,
2013-03-03 21:10:00,30.4,13.5,29.96,NNE,24,0.0,0.0,49,0.00,,,0.00,VWS V14.01,2013-03-04 03:10:00,
2013-03-03 21:15:00,30.4,13.5,29.96,NNE,24,0.0,0.0,49,0.00,,,0.00,VWS V14.01,2013-03-04 03:15:00,
2013-03-03 21:20:00,30.4,13.1,29.96,NNE,24,0.0,0.0,48,0.00,,,0.00,VWS V14.01,2013-03-04 03:20:00,
2013-03-03 21:26:00,30.2,12.9,29.96,NNE,24,0.0,0.0,48,0.00,,,0.00,VWS V14.01,2013-03-04 03:26:00,
2013-03-03 21:31:00,30.2,12.9,29.96,NNE,24,0.0,0.0,48,0.00,,,0.00,VWS V14.01,2013-03-04 03:31:00,
2013-03-03 21:36:00,30.2,12.4,29.96,NNE,24,0.0,0.0,47,0.00,,,0.00,VWS V14.01,2013-03-04 03:36:00,
2013-03-03 21:42:00,30.2,12.4,29.96,NNE,24,0.0,0.0,47,0.00,,,0.00,VWS V14.01,2013-03-04 03:42:00,
2013-03-03 21:48:00,30.2,11.9,29.96,NNE,24,0.0,0.0,46,0.00,,,0.00,VWS V14.01,2013-03-04 03:48:00,
2013-03-03 21:54:00,30.2,11.9,29.96,NNE,24,0.0,0.0,46,0.00,,,0.00,VWS V14.01,2013-03-04 03:54:00,
2013-03-03 22:00:00,30.2,11.9,29.96,NNE,24,0.0,0.0,46,0.00,,,0.00,VWS V14.01,2013-03-04 04:00:00,
2013-03-03 22:05:00,30.2,11.9,29.96,NNE,24,0.0,0.0,46,0.00,,,0.00,VWS V14.01,2013-03-04 04:05:00,
2013-03-03 22:11:00,30.2,11.9,29.96,NNE,24,0.0,0.0,46,0.00,,,0.00,VWS V14.01,2013-03-04 04:11:00,
2013-03-03 22:17:00,30.2,11.9,29.96,NNE,24,0.0,0.0,46,0.00,,,0.00,VWS V14.01,2013-03-04 04:17:00,
2013-03-03 22:23:00,30.2,11.4,29.96,NNE,24,0.0,0.0,45,0.00,,,0.00,VWS V14.01,2013-03-04 04:23:00,
2013-03-03 22:28:00,30.2,11.4,29.96,NNE,24,0.0,0.0,45,0.00,,,0.00,VWS V14.01,2013-03-04 04:28:00,
2013-03-03 22:33:00,30.2,11.4,29.96,NNE,24,0.0,0.0,45,0.00,,,0.00,VWS V14.01,2013-03-04 04:33:00,
2013-03-03 22:39:00,30.2,11.4,29.96,NNE,24,0.0,0.0,45,0.00,,,0.00,VWS V14.01,2013-03-04 04:39:00,
2013-03-03 22:44:00,30.2,11.9,29.96,NNE,24,0.0,0.0,46,0.00,,,0.00,VWS V14.01,2013-03-04 04:44:00,
2013-03-03 22:50:00,30.2,11.9,29.96,NNE,24,0.0,0.0,46,0.00,,,0.00,VWS V14.01,2013-03-04 04:50:00,
2013-03-03 22:55:00,30.2,11.9,29.96,NNE,24,0.0,0.0,46,0.00,,,0.00,VWS V14.01,2013-03-04 04:55:00,
2013-03-03 23:00:00,30.0,11.8,29.96,NNE,24,0.0,0.0,46,0.00,,,0.00,VWS V14.01,2013-03-04 05:00:00,
2013-03-03 23:01:00,30.0,11.8,29.96,NNE,24,0.0,0.0,46,0.00,,,0.00,VWS V14.01,2013-03-04 05:01:00,
2013-03-03 23:02:00,30.0,11.8,29.96,NNE,24,0.0,0.0,46,0.00,,,0.00,VWS V14.01,2013-03-04 05:02:00,
2013-03-03 23:08:00,30.0,12.2,29.96,NNE,24,0.0,0.0,47,0.00,,,0.00,VWS V14.01,2013-03-04 05:08:00,
2013-03-03 23:09:00,30.0,12.2,29.96,NNE,24,0.0,0.0,47,0.00,,,0.00,VWS V14.01,2013-03-04 05:09:00,
2013-03-03 23:14:00,30.0,12.2,29.96,NNE,24,0.0,0.0,47,0.00,,,0.00,VWS V14.01,2013-03-04 05:14:00,
2013-03-03 23:19:00,30.2,12.4,29.96,NNE,24,0.0,0.0,47,0.00,,,0.00,VWS V14.01,2013-03-04 05:19:00,
2013-03-03 23:25:00,30.2,12.4,29.96,NNE,24,0.0,0.0,47,0.00,,,0.00,VWS V14.01,2013-03-04 05:25:00,
2013-03-03 23:30:00,30.2,11.9,29.96,NNE,24,0.0,0.0,46,0.00,,,0.00,VWS V14.01,2013-03-04 05:30:00,
2013-03-03 23:35:00,30.2,11.9,29.96,NNE,24,0.0,0.0,46,0.00,,,0.00,VWS V14.01,2013-03-04 05:35:00,
2013-03-03 23:41:00,30.0,12.2,29.96,NNE,24,0.0,0.0,47,0.00,,,0.00,VWS V14.01,2013-03-04 05:41:00,
2013-03-03 23:46:00,29.8,13.0,29.96,NNE,24,0.0,0.0,49,0.00,,,0.00,VWS V14.01,2013-03-04 05:46:00,
2013-03-03 23:52:00,29.5,14.0,29.96,NNE,24,0.0,0.0,52,0.00,,,0.00,VWS V14.01,2013-03-04 05:52:00,
2013-03-03 23:57:00,28.9,14.4,29.96,NNE,24,0.0,0.0,54,0.00,,,0.00,VWS V14.01,2013-03-04 05:57:00,